Time;durP1;ratioP1;P1;durP2;ratioP2;P2;SDS_P1;SDS_P2;PMS_P1;PMS_P2;Temp;Humidity;BMP_temperature;BMP_pressure;BME280_temperature;BME280_humidity;BME280_pressure;Samples;Min_cycle;Max_cycle;Signal;HPM_P1;HPM_P2
2023/05/26 00:01:07;;;;;;;31.08;5.93;;;8.00;99.90;;;;;;6217048;23;20013;-50
2023/05/26 00:03:34;;;;;;;31.45;6.38;;;8.00;99.90;;;;;;6213446;23;20317;-47
2023/05/26 00:06:00;;;;;;;22.47;5.30;;;7.90;99.90;;;;;;6212151;23;20091;-48
2023/05/26 00:08:26;;;;;;;26.67;5.63;;;7.90;99.90;;;;;;6211674;23;20017;-46
2023/05/26 00:10:52;;;;;;;30.52;6.40;;;7.90;99.90;;;;;;6211766;23;20016;-46
2023/05/26 00:13:18;;;;;;;27.58;5.65;;;7.90;99.90;;;;;;6211950;23;20012;-47
2023/05/26 00:15:43;;;;;;;27.92;6.05;;;7.80;99.90;;;;;;6211860;23;20115;-48
2023/05/26 00:18:09;;;;;;;26.90;6.20;;;7.80;99.90;;;;;;6213650;23;20017;-46
2023/05/26 00:20:35;;;;;;;21.38;5.07;;;7.80;99.90;;;;;;6213218;23;20024;-48
2023/05/26 00:23:01;;;;;;;26.75;5.63;;;7.80;99.90;;;;;;6213281;23;20017;-49
2023/05/26 00:25:26;;;;;;;22.35;5.57;;;7.80;99.90;;;;;;6213823;23;20447;-48
2023/05/26 00:27:52;;;;;;;29.20;5.70;;;7.70;99.90;;;;;;6214213;23;20028;-50
2023/05/26 00:30:18;;;;;;;28.70;6.35;;;7.70;99.90;;;;;;6187030;23;20069;-50
2023/05/26 00:32:44;;;;;;;30.50;6.28;;;7.70;99.90;;;;;;6214155;23;20013;-48
2023/05/26 00:35:09;;;;;;;24.65;5.93;;;7.70;99.90;;;;;;6211042;23;20067;-47
2023/05/26 00:37:35;;;;;;;24.98;5.32;;;7.70;99.90;;;;;;6214128;23;20012;-48
2023/05/26 00:40:01;;;;;;;30.10;6.20;;;7.60;99.90;;;;;;6214668;23;20020;-48
2023/05/26 00:42:26;;;;;;;21.25;5.22;;;7.60;99.90;;;;;;6215290;23;20020;-47
2023/05/26 00:44:52;;;;;;;32.97;5.93;;;7.60;99.90;;;;;;6214766;23;20059;-49
2023/05/26 00:47:19;;;;;;;24.88;5.35;;;7.60;99.90;;;;;;6187658;23;20092;-47
2023/05/26 00:49:45;;;;;;;22.73;5.45;;;7.60;99.90;;;;;;6183142;23;20123;-49
2023/05/26 00:52:12;;;;;;;27.15;5.35;;;7.60;99.90;;;;;;6210006;23;20050;-46
2023/05/26 00:54:39;;;;;;;29.08;5.72;;;7.60;99.90;;;;;;6209812;23;20503;-48
2023/05/26 00:57:06;;;;;;;26.40;5.65;;;7.60;99.90;;;;;;6209452;23;20044;-47
2023/05/26 00:59:32;;;;;;;28.00;6.40;;;7.60;99.90;;;;;;6182480;23;20071;-47
2023/05/26 01:01:59;;;;;;;30.90;5.72;;;7.60;99.90;;;;;;6184596;23;20017;-49
2023/05/26 01:04:25;;;;;;;29.13;5.95;;;7.50;99.90;;;;;;6212810;23;20016;-47
2023/05/26 01:06:52;;;;;;;27.70;5.32;;;7.60;99.90;;;;;;6212693;23;20040;-47
2023/05/26 01:09:18;;;;;;;28.08;5.40;;;7.60;99.90;;;;;;6160063;23;20403;-47
2023/05/26 01:11:55;;;;;;;30.08;6.05;;;7.60;99.90;;;;;;6213432;23;20035;-47
2023/05/26 01:14:29;;;;;;;25.83;5.72;;;7.50;99.90;;;;;;6160519;23;20075;-48
2023/05/26 01:17:18;;;;;;;25.15;5.50;;;7.50;99.90;;;;;;6212327;23;20016;-47
2023/05/26 01:20:10;;;;;;;28.80;5.93;;;7.50;99.90;;;;;;6211511;23;20051;-50
2023/05/26 01:22:38;;;;;;;28.15;5.95;;;7.50;99.90;;;;;;6211863;23;20024;-47
2023/05/26 01:25:26;;;;;;;25.75;6.18;;;7.50;99.90;;;;;;6185334;23;20047;-47
2023/05/26 01:28:20;;;;;;;26.10;5.60;;;7.50;99.90;;;;;;6212325;23;20020;-47
2023/05/26 01:30:47;;;;;;;24.30;5.78;;;7.50;99.90;;;;;;6184574;23;20096;-48
2023/05/26 01:33:12;;;;;;;24.15;6.32;;;7.50;99.90;;;;;;6211980;23;20108;-46
2023/05/26 01:35:38;;;;;;;31.38;6.00;;;7.40;99.90;;;;;;6211766;23;20013;-46
2023/05/26 01:38:06;;;;;;;27.48;5.85;;;7.50;99.90;;;;;;6211912;23;20046;-47
2023/05/26 01:40:32;;;;;;;26.30;6.88;;;7.40;99.90;;;;;;6210457;23;20376;-48
2023/05/26 01:42:57;;;;;;;30.88;6.28;;;7.30;99.90;;;;;;6211740;23;20012;-47
2023/05/26 01:45:26;;;;;;;26.60;7.00;;;7.30;99.90;;;;;;6210661;23;20013;-46
2023/05/26 01:47:59;;;;;;;23.70;5.50;;;7.20;99.90;;;;;;6183638;23;20016;-47
2023/05/26 01:50:33;;;;;;;26.40;5.47;;;7.20;99.90;;;;;;6211273;23;20013;-47
2023/05/26 01:53:06;;;;;;;30.80;6.05;;;7.20;99.90;;;;;;6183160;23;20091;-47
2023/05/26 01:55:34;;;;;;;27.02;5.72;;;7.10;99.90;;;;;;6211340;23;20016;-47
2023/05/26 01:58:01;;;;;;;36.10;6.72;;;7.10;99.90;;;;;;6184917;23;20013;-47
2023/05/26 02:00:27;;;;;;;25.35;5.38;;;7.10;99.90;;;;;;6210794;23;20518;-48
2023/05/26 02:02:53;;;;;;;24.05;5.65;;;7.10;99.90;;;;;;6185219;23;20361;-46
2023/05/26 02:05:18;;;;;;;28.58;5.07;;;7.00;99.90;;;;;;6210880;23;20016;-47
2023/05/26 02:07:45;;;;;;;29.67;6.65;;;7.00;99.90;;;;;;6212474;23;20013;-48
2023/05/26 02:10:11;;;;;;;25.25;6.13;;;7.00;99.90;;;;;;6211620;23;20057;-47
2023/05/26 02:12:37;;;;;;;24.75;5.70;;;6.90;99.90;;;;;;6211199;23;20052;-49
2023/05/26 02:15:03;;;;;;;27.67;6.07;;;6.90;99.90;;;;;;6210913;23;20016;-48
2023/05/26 02:17:28;;;;;;;21.55;5.75;;;6.90;99.90;;;;;;6211239;23;20374;-47
2023/05/26 02:19:54;;;;;;;25.33;5.80;;;6.90;99.90;;;;;;6184270;23;20023;-48
2023/05/26 02:22:20;;;;;;;28.20;6.60;;;6.80;99.90;;;;;;6210301;23;20163;-47
2023/05/26 02:24:46;;;;;;;24.15;5.90;;;6.80;99.90;;;;;;6209547;23;20025;-48
2023/05/26 02:27:11;;;;;;;29.13;6.85;;;6.80;99.90;;;;;;6182520;23;20020;-48
2023/05/26 02:29:37;;;;;;;26.55;5.53;;;6.70;99.90;;;;;;6210618;23;20341;-47
2023/05/26 02:32:03;;;;;;;27.08;5.97;;;6.70;99.90;;;;;;6211152;23;20063;-46
2023/05/26 02:34:28;;;;;;;31.23;6.00;;;6.70;99.90;;;;;;6211055;23;20128;-46
2023/05/26 02:36:55;;;;;;;25.15;5.55;;;6.70;99.90;;;;;;6207277;23;20341;-47
2023/05/26 02:39:21;;;;;;;30.08;6.47;;;6.60;99.90;;;;;;6210042;23;20467;-50
2023/05/26 02:41:47;;;;;;;29.65;5.53;;;6.60;99.90;;;;;;6213889;23;20051;-46
2023/05/26 02:44:13;;;;;;;28.75;5.72;;;6.60;99.90;;;;;;6212262;23;20355;-47
2023/05/26 02:46:40;;;;;;;22.10;5.45;;;6.60;99.90;;;;;;6210625;23;20388;-48
2023/05/26 02:49:06;;;;;;;29.17;6.18;;;6.50;99.90;;;;;;6211048;23;20115;-45
2023/05/26 02:51:35;;;;;;;28.60;6.10;;;6.50;99.90;;;;;;6210867;23;20017;-47
2023/05/26 02:54:01;;;;;;;36.08;6.28;;;6.50;99.90;;;;;;6209433;23;20063;-46
2023/05/26 02:56:26;;;;;;;23.10;5.80;;;6.50;99.90;;;;;;6156874;23;20013;-47
2023/05/26 02:58:52;;;;;;;30.50;6.80;;;6.50;99.90;;;;;;6181592;23;20425;-48
2023/05/26 03:01:17;;;;;;;27.48;6.05;;;6.40;99.90;;;;;;6208087;23;20024;-47
2023/05/26 03:03:43;;;;;;;23.08;6.45;;;6.40;99.90;;;;;;6208387;23;20338;-47
2023/05/26 03:06:09;;;;;;;28.63;5.40;;;6.40;99.90;;;;;;6209351;23;20031;-48
2023/05/26 03:08:37;;;;;;;20.95;5.82;;;6.40;99.90;;;;;;6210472;23;20023;-46
2023/05/26 03:11:03;;;;;;;26.98;6.95;;;6.40;99.90;;;;;;6186896;23;20055;-48
2023/05/26 03:13:29;;;;;;;27.85;5.97;;;6.40;99.90;;;;;;6212870;23;20314;-49
2023/05/26 03:15:55;;;;;;;32.70;6.75;;;;;;;;;;6210110;23;20019;-47
2023/05/26 03:18:20;;;;;;;28.63;6.20;;;6.30;99.90;;;;;;6210494;23;20048;-47
2023/05/26 03:20:46;;;;;;;25.58;5.70;;;6.30;99.90;;;;;;6210323;23;20023;-47
2023/05/26 03:23:13;;;;;;;27.95;6.13;;;6.30;99.90;;;;;;6209941;23;20016;-47
2023/05/26 03:25:40;;;;;;;21.50;6.30;;;6.30;99.90;;;;;;6209771;23;20445;-47
2023/05/26 03:28:06;;;;;;;27.15;6.10;;;6.30;99.90;;;;;;6210817;23;20080;-46
2023/05/26 03:30:31;;;;;;;24.98;5.53;;;6.30;99.90;;;;;;6182482;23;20538;-46
2023/05/26 03:32:57;;;;;;;26.58;5.75;;;6.30;99.90;;;;;;6208313;23;20012;-46
2023/05/26 03:35:23;;;;;;;30.27;5.97;;;6.20;99.90;;;;;;6184448;23;20542;-46
2023/05/26 03:37:49;;;;;;;29.70;5.93;;;6.20;99.90;;;;;;6213154;23;20075;-48
2023/05/26 03:40:15;;;;;;;28.23;5.57;;;6.20;99.90;;;;;;6187821;23;20009;-46
2023/05/26 03:42:40;;;;;;;29.98;5.72;;;6.20;99.90;;;;;;6215183;23;20445;-50
2023/05/26 03:45:06;;;;;;;27.65;6.15;;;6.20;99.90;;;;;;6214384;23;20027;-46
2023/05/26 03:47:32;;;;;;;28.92;6.40;;;6.30;99.90;;;;;;6187125;23;20095;-47
2023/05/26 03:49:58;;;;;;;27.00;5.90;;;6.30;99.90;;;;;;6214575;23;20058;-47
2023/05/26 03:52:25;;;;;;;22.88;6.18;;;6.30;99.90;;;;;;6214692;23;20017;-46
2023/05/26 03:54:51;;;;;;;28.48;6.03;;;6.30;99.90;;;;;;6214152;23;20433;-46
2023/05/26 03:57:16;;;;;;;25.45;6.00;;;6.40;99.90;;;;;;6214393;23;20012;-47
2023/05/26 03:59:42;;;;;;;27.10;5.82;;;6.40;99.90;;;;;;6214552;23;20012;-46
2023/05/26 04:02:08;;;;;;;27.10;6.38;;;6.50;99.90;;;;;;6214353;23;20070;-46
2023/05/26 04:04:34;;;;;;;31.35;6.15;;;6.60;99.90;;;;;;6213619;23;20048;-46
2023/05/26 04:07:00;;;;;;;29.00;6.20;;;6.60;99.90;;;;;;6213738;23;20020;-44
2023/05/26 04:09:26;;;;;;;27.40;6.68;;;6.70;99.90;;;;;;6213318;23;20084;-45
2023/05/26 04:11:52;;;;;;;25.90;6.55;;;6.70;99.90;;;;;;6189780;23;20064;-46
2023/05/26 04:14:18;;;;;;;24.10;6.30;;;6.80;99.90;;;;;;6215284;23;20070;-46
2023/05/26 04:16:43;;;;;;;22.00;6.30;;;6.90;99.90;;;;;;6184930;23;20020;-44
2023/05/26 04:19:09;;;;;;;27.98;5.90;;;7.00;99.90;;;;;;6212047;23;20506;-45
2023/05/26 04:21:36;;;;;;;26.98;6.75;;;7.10;99.90;;;;;;6212221;23;20519;-44
2023/05/26 04:24:02;;;;;;;26.33;6.55;;;7.10;99.90;;;;;;6211844;23;20483;-45
2023/05/26 04:26:33;;;;;;;32.25;6.85;;;7.20;99.90;;;;;;6184939;23;20105;-45
2023/05/26 04:28:59;;;;;;;28.25;6.10;;;7.30;99.90;;;;;;6186566;23;20016;-47
2023/05/26 04:31:28;;;;;;;30.45;6.55;;;7.40;99.90;;;;;;6211128;23;20015;-46
2023/05/26 04:33:57;;;;;;;28.25;6.28;;;7.70;99.90;;;;;;6159367;23;20028;-44
2023/05/26 04:36:24;;;;;;;20.77;5.32;;;8.80;99.90;;;;;;6158261;23;20059;-46
2023/05/26 04:38:51;;;;;;;29.10;6.88;;;9.00;99.90;;;;;;6209547;23;20017;-45
2023/05/26 04:41:18;;;;;;;28.40;5.95;;;10.10;99.90;;;;;;6182849;23;20420;-43
2023/05/26 04:43:44;;;;;;;26.15;6.18;;;10.20;99.90;;;;;;6210168;23;20114;-46
2023/05/26 04:46:10;;;;;;;27.10;6.78;;;10.70;99.90;;;;;;6210833;23;20096;-47
2023/05/26 04:48:39;;;;;;;22.85;6.22;;;11.30;99.90;;;;;;6210749;23;20048;-45
2023/05/26 04:51:07;;;;;;;21.23;5.45;;;11.80;99.90;;;;;;6210783;23;20416;-44
2023/05/26 04:53:33;;;;;;;22.97;5.80;;;12.10;99.90;;;;;;6188035;23;20037;-46
2023/05/26 04:56:01;;;;;;;22.75;5.45;;;12.80;99.90;;;;;;6212274;23;20028;-47
2023/05/26 04:58:26;;;;;;;23.55;5.18;;;12.80;99.90;;;;;;6211896;23;20012;-45
2023/05/26 05:00:53;;;;;;;22.83;5.25;;;12.90;99.90;;;;;;6211665;23;20459;-46
2023/05/26 05:03:21;;;;;;;22.02;5.22;;;13.30;99.90;;;;;;6208959;23;20372;-46
2023/05/26 05:05:47;;;;;;;23.90;5.20;;;13.50;99.90;;;;;;6212661;23;20027;-46
2023/05/26 05:08:13;;;;;;;24.15;5.65;;;13.50;99.90;;;;;;6214476;23;20344;-46
2023/05/26 05:10:39;;;;;;;20.73;5.55;;;13.50;99.90;;;;;;6214255;23;20008;-44
2023/05/26 05:13:05;;;;;;;21.75;5.32;;;13.80;99.90;;;;;;6214602;23;20019;-45
2023/05/26 05:15:30;;;;;;;21.63;5.35;;;14.00;99.90;;;;;;6186085;23;20092;-47
2023/05/26 05:17:58;;;;;;;21.95;5.45;;;14.30;99.90;;;;;;6187663;23;20013;-44
2023/05/26 05:20:26;;;;;;;18.88;5.40;;;14.10;99.90;;;;;;6213004;23;20057;-45
2023/05/26 05:22:53;;;;;;;25.48;5.78;;;14.30;99.90;;;;;;6211343;23;20031;-45
2023/05/26 05:25:19;;;;;;;22.77;5.13;;;14.40;99.90;;;;;;6209898;23;20305;-44
2023/05/26 05:27:44;;;;;;;23.50;5.80;;;14.60;99.90;;;;;;6212410;23;20013;-45
2023/05/26 05:30:11;;;;;;;23.33;6.00;;;14.70;99.90;;;;;;6213797;23;20016;-46
2023/05/26 05:32:37;;;;;;;21.20;5.60;;;15.00;99.90;;;;;;6214147;23;20017;-48
2023/05/26 05:35:03;;;;;;;22.02;5.10;;;15.50;99.90;;;;;;6214717;23;20074;-44
2023/05/26 05:37:29;;;;;;;26.45;5.95;;;15.30;99.90;;;;;;6215221;23;20309;-45
2023/05/26 05:39:54;;;;;;;25.77;5.30;;;15.40;99.90;;;;;;6216017;23;20433;-45
2023/05/26 05:42:22;;;;;;;26.05;5.68;;;14.90;99.90;;;;;;6213826;23;20413;-44
2023/05/26 05:44:47;;;;;;;18.55;5.25;;;14.80;99.90;;;;;;6214736;23;20103;-44
2023/05/26 05:47:13;;;;;;;21.50;5.22;;;15.00;99.90;;;;;;6188034;23;20012;-45
2023/05/26 05:49:38;;;;;;;20.15;5.00;;;15.10;99.90;;;;;;6213939;23;20013;-45
2023/05/26 05:52:04;;;;;;;19.50;5.15;;;15.20;99.90;;;;;;6214027;23;20012;-46
2023/05/26 05:54:30;;;;;;;21.10;5.22;;;15.60;99.90;;;;;;6213532;23;20028;-44
2023/05/26 05:56:55;;;;;;;18.38;4.90;;;16.00;99.90;;;;;;6187537;23;20009;-48
2023/05/26 05:59:21;;;;;;;20.05;5.55;;;15.90;99.90;;;;;;6214657;23;20085;-46
2023/05/26 06:01:47;;;;;;;24.13;5.70;;;15.60;99.90;;;;;;6213589;23;20376;-45
2023/05/26 06:04:12;;;;;;;22.00;5.57;;;16.10;99.90;;;;;;6214124;23;20017;-45
2023/05/26 06:06:38;;;;;;;19.98;5.05;;;15.80;99.90;;;;;;6214199;23;20095;-44
2023/05/26 06:09:04;;;;;;;19.85;5.55;;;15.50;99.90;;;;;;6187627;23;20019;-44
2023/05/26 06:11:29;;;;;;;19.52;4.80;;;14.90;99.90;;;;;;6187443;23;20410;-46
2023/05/26 06:13:55;;;;;;;16.58;4.93;;;14.10;99.90;;;;;;6214226;23;20024;-48
2023/05/26 06:16:20;;;;;;;23.25;5.40;;;13.60;99.90;;;;;;6187600;23;20017;-46
2023/05/26 06:18:46;;;;;;;23.58;5.45;;;13.30;99.90;;;;;;6213801;23;20036;-45
2023/05/26 06:21:12;;;;;;;18.90;4.85;;;12.80;99.90;;;;;;6190955;23;20031;-45
2023/05/26 06:23:37;;;;;;;22.58;5.63;;;12.50;99.90;;;;;;6214005;23;20021;-46
2023/05/26 06:26:03;;;;;;;23.73;5.43;;;12.30;99.90;;;;;;6214185;23;20017;-48
2023/05/26 06:28:29;;;;;;;24.40;5.47;;;12.30;99.90;;;;;;6214287;23;20020;-47
2023/05/26 06:30:54;;;;;;;24.77;5.30;;;12.30;99.90;;;;;;6214319;23;20019;-45
2023/05/26 06:33:20;;;;;;;26.52;5.72;;;12.30;99.90;;;;;;6214001;23;20017;-44
2023/05/26 06:35:45;;;;;;;20.05;4.53;;;12.40;99.90;;;;;;6213946;23;20008;-47
2023/05/26 06:38:11;;;;;;;16.83;4.15;;;12.50;99.90;;;;;;6214289;23;20020;-44
2023/05/26 06:40:37;;;;;;;23.83;5.50;;;12.30;99.90;;;;;;6213182;23;20016;-45
2023/05/26 06:43:02;;;;;;;17.73;4.35;;;12.60;99.90;;;;;;6214302;23;20023;-44
2023/05/26 06:45:28;;;;;;;20.95;5.03;;;12.70;99.90;;;;;;6213910;23;20432;-46
2023/05/26 06:47:53;;;;;;;20.95;4.90;;;13.40;99.90;;;;;;6214079;23;20094;-44
2023/05/26 06:50:19;;;;;;;26.85;6.18;;;14.70;99.90;;;;;;6213501;23;20017;-45
2023/05/26 06:52:46;;;;;;;19.80;4.50;;;15.00;99.90;;;;;;6184393;23;20071;-45
2023/05/26 06:55:11;;;;;;;19.98;5.25;;;15.30;99.90;;;;;;6186276;23;20013;-44
2023/05/26 06:57:37;;;;;;;21.63;4.55;;;15.30;99.90;;;;;;6212725;23;20429;-45
2023/05/26 07:00:04;;;;;;;18.70;4.32;;;15.20;99.90;;;;;;6213434;23;20044;-45
2023/05/26 07:02:29;;;;;;;20.13;4.78;;;15.00;99.90;;;;;;6213696;23;20023;-45
2023/05/26 07:04:55;;;;;;;15.35;3.83;;;14.90;99.90;;;;;;6214152;23;20012;-47
2023/05/26 07:07:20;;;;;;;18.65;3.92;;;14.90;99.90;;;;;;6213325;23;20041;-47
2023/05/26 07:09:46;;;;;;;16.83;4.60;;;15.40;99.90;;;;;;6213135;23;20013;-45
2023/05/26 07:12:12;;;;;;;19.05;4.00;;;15.60;99.90;;;;;;6212844;23;20070;-44
2023/05/26 07:14:37;;;;;;;14.15;4.25;;;15.50;99.90;;;;;;6212920;23;20080;-44
2023/05/26 07:17:03;;;;;;;17.92;4.95;;;14.60;99.90;;;;;;6213094;23;20013;-46
2023/05/26 07:19:29;;;;;;;22.02;4.28;;;;;;;;;;6213064;23;20016;-44
2023/05/26 07:21:55;;;;;;;19.20;4.88;;;14.00;99.90;;;;;;6186509;23;20016;-45
2023/05/26 07:24:20;;;;;;;18.00;4.97;;;13.50;99.90;;;;;;6213616;23;20267;-45
2023/05/26 07:26:46;;;;;;;21.73;4.53;;;13.50;99.90;;;;;;6212566;23;20044;-47
2023/05/26 07:29:11;;;;;;;21.13;5.03;;;13.70;99.90;;;;;;6213201;23;20080;-45
2023/05/26 07:31:37;;;;;;;17.50;4.20;;;13.30;99.90;;;;;;6212917;23;20311;-48
2023/05/26 07:34:02;;;;;;;19.75;5.78;;;13.20;99.90;;;;;;6186278;23;20104;-47
2023/05/26 07:36:28;;;;;;;21.27;4.82;;;13.50;99.90;;;;;;6212779;23;20089;-46
2023/05/26 07:38:54;;;;;;;21.42;4.50;;;13.50;99.90;;;;;;6212681;23;20009;-44
2023/05/26 07:41:21;;;;;;;20.38;4.63;;;13.40;99.90;;;;;;6212862;23;20016;-46
2023/05/26 07:43:47;;;;;;;22.52;5.45;;;13.50;99.90;;;;;;6212759;23;20095;-44
2023/05/26 07:46:13;;;;;;;18.50;4.57;;;13.70;99.90;;;;;;6213280;23;20044;-46
2023/05/26 07:48:38;;;;;;;23.65;5.50;;;13.80;99.90;;;;;;6212909;23;20012;-46
2023/05/26 07:51:04;;;;;;;16.83;4.65;;;13.90;99.90;;;;;;6213110;23;20012;-45
2023/05/26 07:53:29;;;;;;;18.00;4.25;;;13.90;99.90;;;;;;6212927;23;20427;-46
2023/05/26 07:55:55;;;;;;;12.52;3.50;;;14.00;99.90;;;;;;6212852;23;20012;-46
2023/05/26 07:58:21;;;;;;;22.17;4.43;;;14.00;99.90;;;;;;6212879;23;20417;-46
2023/05/26 08:00:46;;;;;;;15.95;4.07;;;14.20;99.90;;;;;;6185713;23;20081;-45
2023/05/26 08:03:12;;;;;;;15.15;4.50;;;13.90;99.90;;;;;;6186035;23;20048;-46
2023/05/26 08:05:37;;;;;;;20.58;4.85;;;14.40;99.90;;;;;;6185700;23;20064;-48
2023/05/26 08:08:04;;;;;;;23.10;5.13;;;14.40;99.90;;;;;;6212763;23;20071;-45
2023/05/26 08:10:29;;;;;;;17.52;4.60;;;14.60;99.90;;;;;;6185525;23;20322;-46
2023/05/26 08:12:55;;;;;;;19.58;4.20;;;14.80;99.90;;;;;;6212897;23;20074;-46
2023/05/26 08:15:21;;;;;;;15.50;3.67;;;14.50;99.90;;;;;;6212616;23;20047;-45
2023/05/26 08:17:48;;;;;;;16.98;4.45;;;14.70;99.90;;;;;;6186084;23;20017;-48
2023/05/26 08:20:13;;;;;;;20.23;4.20;;;14.90;99.90;;;;;;6213548;23;20015;-46
2023/05/26 08:22:39;;;;;;;18.70;4.38;;;14.80;99.90;;;;;;6218375;23;20437;-47
2023/05/26 08:25:05;;;;;;;22.23;5.07;;;14.70;99.90;;;;;;6214901;23;20016;-46
2023/05/26 08:27:30;;;;;;;18.50;4.50;;;15.10;99.90;;;;;;6214504;23;20340;-45
2023/05/26 08:29:56;;;;;;;18.55;4.65;;;15.10;99.90;;;;;;6214402;23;20023;-46
2023/05/26 08:32:22;;;;;;;17.02;4.50;;;15.10;99.90;;;;;;6187420;23;20017;-46
2023/05/26 08:34:48;;;;;;;19.95;5.03;;;15.10;99.90;;;;;;6187678;23;20113;-45
2023/05/26 08:37:14;;;;;;;18.15;4.68;;;15.30;99.90;;;;;;6214342;23;20024;-46
2023/05/26 08:39:40;;;;;;;15.30;4.40;;;15.40;99.90;;;;;;6213983;23;20032;-46
2023/05/26 08:42:12;;;;;;;21.42;4.75;;;15.30;99.90;;;;;;6214302;23;20016;-45
2023/05/26 08:44:38;;;;;;;19.88;4.43;;;15.60;99.90;;;;;;6187197;23;20460;-45
2023/05/26 08:47:04;;;;;;;16.58;3.60;;;15.60;99.90;;;;;;6214092;23;20514;-47
2023/05/26 08:49:36;;;;;;;19.85;4.93;;;15.40;99.90;;;;;;6214663;23;20108;-46
2023/05/26 08:52:09;;;;;;;15.43;3.42;;;15.40;99.90;;;;;;6214179;23;20023;-45
2023/05/26 08:54:34;;;;;;;15.07;4.75;;;15.30;99.90;;;;;;6213673;23;20479;-47
2023/05/26 08:57:03;;;;;;;20.05;3.50;;;15.60;99.90;;;;;;6214269;23;20076;-46
2023/05/26 08:59:29;;;;;;;15.93;4.07;;;15.50;99.90;;;;;;6214446;23;20009;-42
2023/05/26 09:01:56;;;;;;;14.88;3.45;;;15.30;99.90;;;;;;6214310;23;20024;-43
2023/05/26 09:04:22;;;;;;;15.07;3.92;;;15.50;99.90;;;;;;6214408;23;20301;-44
2023/05/26 09:06:48;;;;;;;17.13;4.50;;;15.50;99.90;;;;;;6214555;23;20020;-44
2023/05/26 09:09:16;;;;;;;15.90;3.92;;;15.50;99.90;;;;;;6214299;23;20087;-43
2023/05/26 09:11:42;;;;;;;16.55;3.97;;;15.60;99.90;;;;;;6214116;23;20023;-46
2023/05/26 09:14:08;;;;;;;19.35;4.70;;;15.80;99.90;;;;;;6214075;23;20475;-44
2023/05/26 09:16:34;;;;;;;11.57;3.50;;;15.90;99.90;;;;;;6187331;23;20013;-46
2023/05/26 09:19:01;;;;;;;14.20;3.72;;;15.90;99.90;;;;;;6214276;23;20463;-46
2023/05/26 09:21:28;;;;;;;15.60;4.35;;;16.10;99.90;;;;;;6164302;23;20095;-44
2023/05/26 09:24:01;;;;;;;15.60;4.88;;;16.30;99.90;;;;;;6215951;23;20329;-44
2023/05/26 09:26:34;;;;;;;15.07;4.13;;;16.50;99.90;;;;;;6187271;23;20017;-45
2023/05/26 09:29:01;;;;;;;13.98;4.03;;;16.50;99.90;;;;;;6214187;23;20095;-45
2023/05/26 09:31:38;;;;;;;16.20;4.10;;;16.50;99.90;;;;;;6187276;23;20346;-45
2023/05/26 09:34:04;;;;;;;16.30;4.70;;;16.20;99.90;;;;;;6214275;23;20079;-44
2023/05/26 09:36:33;;;;;;;19.95;4.78;;;16.40;99.90;;;;;;6213643;23;20472;-46
2023/05/26 09:39:00;;;;;;;11.85;4.35;;;16.40;99.90;;;;;;6213808;23;20013;-45
2023/05/26 09:41:36;;;;;;;18.10;4.40;;;16.10;99.90;;;;;;6213348;23;20024;-46
2023/05/26 09:44:11;;;;;;;13.75;3.83;;;16.70;99.90;;;;;;6187503;23;20062;-44
2023/05/26 09:46:38;;;;;;;12.45;3.05;;;16.60;99.90;;;;;;6215700;23;20013;-47
2023/05/26 09:49:18;;;;;;;8.82;2.75;;;16.20;99.90;;;;;;6214730;23;20047;-47
2023/05/26 09:51:46;;;;;;;11.82;3.55;;;16.20;99.90;;;;;;6187031;23;20054;-44
2023/05/26 09:54:12;;;;;;;;;;;16.40;99.90;;;;;;6213593;23;20294;-46
2023/05/26 09:56:51;;;;;;;12.07;3.35;;;16.70;99.90;;;;;;6213550;23;19922;-45
2023/05/26 09:59:19;;;;;;;13.82;3.75;;;16.70;99.90;;;;;;6213867;23;20334;-44
2023/05/26 10:01:46;;;;;;;12.93;2.72;;;16.70;99.90;;;;;;6212726;23;20013;-44
2023/05/26 10:04:14;;;;;;;18.48;5.03;;;16.50;99.90;;;;;;6213352;23;20134;-44
2023/05/26 10:06:41;;;;;;;16.13;4.32;;;16.70;99.90;;;;;;6212177;23;20015;-44
2023/05/26 10:09:07;;;;;;;10.50;3.08;;;17.00;99.90;;;;;;6209603;23;20476;-46
2023/05/26 10:11:38;;;;;;;7.82;2.78;;;17.20;99.90;;;;;;6209870;23;20464;-44
2023/05/26 10:14:05;;;;;;;15.15;3.47;;;17.00;99.90;;;;;;6209340;23;20421;-47
2023/05/26 10:16:32;;;;;;;11.55;3.58;;;16.80;99.90;;;;;;6211718;23;20025;-43
2023/05/26 10:18:58;;;;;;;10.77;3.47;;;17.00;99.90;;;;;;6211327;23;20440;-47
2023/05/26 10:21:28;;;;;;;12.90;3.25;;;17.20;99.90;;;;;;6213717;23;20028;-44
2023/05/26 10:24:04;;;;;;;13.60;3.35;;;16.80;99.90;;;;;;6214638;23;20374;-45
2023/05/26 10:27:05;;;;;;;15.25;4.13;;;17.00;99.90;;;;;;6213108;23;20071;-44
2023/05/26 10:30:01;;;;;;;15.13;4.32;;;17.10;99.90;;;;;;6213074;23;20078;-44
2023/05/26 10:32:48;;;;;;;12.63;3.75;;;17.40;99.90;;;;;;6209213;23;20044;-44
2023/05/26 10:35:28;;;;;;;13.05;3.55;;;17.10;99.90;;;;;;6213148;23;20059;-43
2023/05/26 10:37:56;;;;;;;10.32;3.03;;;17.00;99.90;;;;;;6184807;23;20118;-44
2023/05/26 10:40:48;;;;;;;11.25;3.08;;;17.10;99.90;;;;;;6183805;23;20020;-44
2023/05/26 10:43:23;;;;;;;11.13;3.40;;;17.20;99.90;;;;;;6183526;23;20100;-48
2023/05/26 10:45:57;;;;;;;16.88;3.70;;;17.00;99.90;;;;;;6210688;23;20017;-45
2023/05/26 10:48:37;;;;;;;10.25;3.28;;;17.20;99.90;;;;;;6211057;23;20063;-44
2023/05/26 10:51:07;;;;;;;15.32;3.58;;;17.00;99.80;;;;;;6184290;23;20095;-48
2023/05/26 10:53:36;;;;;;;10.57;2.75;;;17.20;99.90;;;;;;6211106;23;20017;-44
2023/05/26 10:56:03;;;;;;;14.70;3.25;;;17.10;99.70;;;;;;6212060;23;20091;-44
2023/05/26 10:58:29;;;;;;;12.65;3.28;;;17.00;99.70;;;;;;6212372;23;20445;-45
2023/05/26 11:00:58;;;;;;;6.45;2.38;;;17.20;99.70;;;;;;6211725;23;20043;-44
2023/05/26 11:03:38;;;;;;;14.05;3.35;;;17.20;99.40;;;;;;6186181;23;20020;-44
2023/05/26 11:06:07;;;;;;;6.57;2.00;;;17.20;99.50;;;;;;6210979;23;20420;-48
2023/05/26 11:08:49;;;;;;;13.57;3.40;;;17.40;99.30;;;;;;6210433;23;20135;-44
2023/05/26 11:11:29;;;;;;;10.98;3.03;;;17.50;99.60;;;;;;6209434;23;20013;-45
2023/05/26 11:14:12;;;;;;;9.10;2.47;;;17.40;99.20;;;;;;6211805;23;20024;-46
2023/05/26 11:16:42;;;;;;;14.45;3.42;;;17.40;98.30;;;;;;6184193;23;20016;-45
2023/05/26 11:19:10;;;;;;;9.63;2.97;;;17.30;98.40;;;;;;6213351;23;20101;-45
2023/05/26 11:21:37;;;;;;;8.70;2.38;;;17.20;98.30;;;;;;6213978;23;20012;-45
2023/05/26 11:24:04;;;;;;;11.25;2.38;;;17.30;97.60;;;;;;6187478;23;20103;-44
2023/05/26 11:26:30;;;;;;;12.75;3.10;;;17.40;98.10;;;;;;6212833;23;20075;-50
2023/05/26 11:28:58;;;;;;;9.55;2.83;;;17.50;98.60;;;;;;6213141;23;20059;-55
2023/05/26 11:31:25;;;;;;;13.45;3.35;;;17.60;98.70;;;;;;6211708;23;20070;-50
2023/05/26 11:33:52;;;;;;;10.18;3.10;;;17.50;98.80;;;;;;6184143;23;20067;-53
2023/05/26 11:36:19;;;;;;;10.57;2.65;;;17.50;98.10;;;;;;6184351;23;20013;-53
2023/05/26 11:38:47;;;;;;;9.23;2.83;;;17.70;97.80;;;;;;6211440;23;20399;-53
2023/05/26 11:41:17;;;;;;;10.00;3.17;;;17.80;98.10;;;;;;6212491;23;20047;-54
2023/05/26 11:43:46;;;;;;;11.32;3.25;;;17.80;97.40;;;;;;6213365;23;20092;-54
2023/05/26 11:46:15;;;;;;;9.43;2.40;;;17.90;97.80;;;;;;6213771;23;20087;-51
2023/05/26 11:48:43;;;;;;;10.10;2.25;;;17.90;96.60;;;;;;6213594;23;20024;-50
2023/05/26 11:51:14;;;;;;;11.63;2.95;;;17.90;96.70;;;;;;6213498;23;20024;-51
2023/05/26 11:53:41;;;;;;;10.15;2.88;;;17.80;97.30;;;;;;6187098;23;20067;-50
2023/05/26 11:56:12;;;;;;;11.82;3.53;;;17.90;97.10;;;;;;6215846;23;20377;-50
2023/05/26 11:58:41;;;;;;;15.18;3.08;;;18.00;96.90;;;;;;6215577;23;20070;-53
2023/05/26 12:01:08;;;;;;;9.68;2.97;;;17.90;97.10;;;;;;6215067;23;20020;-50
2023/05/26 12:03:40;;;;;;;9.95;2.67;;;17.90;97.60;;;;;;6214615;23;20472;-50
2023/05/26 12:06:19;;;;;;;10.88;2.30;;;17.80;97.20;;;;;;6215762;23;20016;-54
2023/05/26 12:08:51;;;;;;;13.45;3.30;;;17.80;96.80;;;;;;6215553;23;20013;-50
2023/05/26 12:11:33;;;;;;;9.82;3.50;;;18.00;97.10;;;;;;6188328;23;20077;-51
2023/05/26 12:14:00;;;;;;;14.20;3.75;;;18.00;97.30;;;;;;6215466;23;20013;-50
2023/05/26 12:16:34;;;;;;;12.95;3.53;;;18.20;96.80;;;;;;6215637;23;20017;-50
2023/05/26 12:19:03;;;;;;;9.00;3.25;;;18.20;96.90;;;;;;6215293;23;20020;-51
2023/05/26 12:21:30;;;;;;;7.57;2.97;;;18.30;96.60;;;;;;6215772;23;20015;-51
2023/05/26 12:23:57;;;;;;;12.00;3.67;;;18.00;96.00;;;;;;6216211;23;20024;-51
2023/05/26 12:26:27;;;;;;;10.07;3.47;;;18.00;96.00;;;;;;6216870;23;20013;-54
2023/05/26 12:29:13;;;;;;;10.27;3.33;;;18.10;96.10;;;;;;6216644;23;20394;-51
2023/05/26 12:31:49;;;;;;;9.70;3.15;;;18.10;96.70;;;;;;6216454;23;20051;-55
2023/05/26 12:34:22;;;;;;;8.23;2.80;;;18.60;99.90;;;;;;6215185;23;20068;-53
2023/05/26 12:36:48;;;;;;;14.88;3.42;;;18.60;99.90;;;;;;6215388;23;20021;-51
2023/05/26 12:39:15;;;;;;;9.65;2.90;;;18.50;99.90;;;;;;6215968;23;20017;-54
2023/05/26 12:41:41;;;;;;;13.27;3.63;;;18.20;99.90;;;;;;6215838;23;20008;-53
2023/05/26 12:44:08;;;;;;;7.40;2.60;;;18.40;99.90;;;;;;6215058;23;20062;-52
2023/05/26 12:46:34;;;;;;;12.25;3.33;;;18.40;99.90;;;;;;6215193;23;20055;-53